sensor_id;sensor_type;location;lat;lon;timestamp;temperature;humidity
38333;DHT22;25748;46.670;14.272;2022-12-05T00:01:37;5.20;71.40
38333;DHT22;25748;46.670;14.272;2022-12-05T00:04:07;5.10;71.40
38333;DHT22;25748;46.670;14.272;2022-12-05T00:06:34;5.20;71.50
38333;DHT22;25748;46.670;14.272;2022-12-05T00:09:01;5.10;71.40
38333;DHT22;25748;46.670;14.272;2022-12-05T00:11:29;5.10;71.60
38333;DHT22;25748;46.670;14.272;2022-12-05T00:13:57;5.10;71.60
38333;DHT22;25748;46.670;14.272;2022-12-05T00:16:24;5.10;71.60
38333;DHT22;25748;46.670;14.272;2022-12-05T00:18:50;5.10;71.60
38333;DHT22;25748;46.670;14.272;2022-12-05T00:21:22;5.10;71.70
38333;DHT22;25748;46.670;14.272;2022-12-05T00:23:49;5.10;71.70
38333;DHT22;25748;46.670;14.272;2022-12-05T00:26:15;5.00;71.60
38333;DHT22;25748;46.670;14.272;2022-12-05T00:28:41;5.10;71.70
38333;DHT22;25748;46.670;14.272;2022-12-05T00:31:10;5.00;71.60
38333;DHT22;25748;46.670;14.272;2022-12-05T00:33:48;5.00;71.60
38333;DHT22;25748;46.670;14.272;2022-12-05T00:36:17;5.00;71.70
38333;DHT22;25748;46.670;14.272;2022-12-05T00:38:43;5.00;71.70
38333;DHT22;25748;46.670;14.272;2022-12-05T00:41:12;5.00;71.70
38333;DHT22;25748;46.670;14.272;2022-12-05T00:43:39;5.00;71.90
38333;DHT22;25748;46.670;14.272;2022-12-05T00:46:06;5.00;71.90
38333;DHT22;25748;46.670;14.272;2022-12-05T00:48:32;5.00;71.90
38333;DHT22;25748;46.670;14.272;2022-12-05T00:51:07;5.00;71.90
38333;DHT22;25748;46.670;14.272;2022-12-05T00:53:33;5.00;72.00
38333;DHT22;25748;46.670;14.272;2022-12-05T00:56:07;5.00;71.90
38333;DHT22;25748;46.670;14.272;2022-12-05T00:58:36;5.00;72.00
38333;DHT22;25748;46.670;14.272;2022-12-05T01:03:36;5.00;72.00
38333;DHT22;25748;46.670;14.272;2022-12-05T01:06:03;4.90;72.00
38333;DHT22;25748;46.670;14.272;2022-12-05T01:08:30;5.00;72.20
38333;DHT22;25748;46.670;14.272;2022-12-05T01:10:56;4.90;72.10
38333;DHT22;25748;46.670;14.272;2022-12-05T01:13:23;4.90;72.20
38333;DHT22;25748;46.670;14.272;2022-12-05T01:15:50;4.90;72.30
38333;DHT22;25748;46.670;14.272;2022-12-05T01:18:18;4.90;72.30
38333;DHT22;25748;46.670;14.272;2022-12-05T01:20:44;4.90;72.40
38333;DHT22;25748;46.670;14.272;2022-12-05T01:23:11;4.90;72.40
38333;DHT22;25748;46.670;14.272;2022-12-05T01:25:44;4.90;72.40
38333;DHT22;25748;46.670;14.272;2022-12-05T01:28:10;4.90;72.40
38333;DHT22;25748;46.670;14.272;2022-12-05T01:30:41;4.90;72.40
38333;DHT22;25748;46.670;14.272;2022-12-05T01:33:08;4.90;72.40
38333;DHT22;25748;46.670;14.272;2022-12-05T01:35:35;5.00;72.40
38333;DHT22;25748;46.670;14.272;2022-12-05T01:38:01;4.90;72.40
38333;DHT22;25748;46.670;14.272;2022-12-05T01:40:28;4.90;72.40
38333;DHT22;25748;46.670;14.272;2022-12-05T01:42:53;4.90;72.40
38333;DHT22;25748;46.670;14.272;2022-12-05T01:45:40;4.90;72.40
38333;DHT22;25748;46.670;14.272;2022-12-05T01:48:17;4.90;72.40
38333;DHT22;25748;46.670;14.272;2022-12-05T01:50:43;4.90;72.20
38333;DHT22;25748;46.670;14.272;2022-12-05T01:53:09;4.90;72.20
38333;DHT22;25748;46.670;14.272;2022-12-05T01:55:35;4.90;72.30
38333;DHT22;25748;46.670;14.272;2022-12-05T01:58:04;4.90;72.20
38333;DHT22;25748;46.670;14.272;2022-12-05T02:00:31;4.90;72.40
38333;DHT22;25748;46.670;14.272;2022-12-05T02:03:02;4.90;72.40
38333;DHT22;25748;46.670;14.272;2022-12-05T02:05:32;4.80;72.30
38333;DHT22;25748;46.670;14.272;2022-12-05T02:08:01;4.80;72.30
38333;DHT22;25748;46.670;14.272;2022-12-05T02:10:29;4.80;72.50
38333;DHT22;25748;46.670;14.272;2022-12-05T02:13:01;4.80;72.50
38333;DHT22;25748;46.670;14.272;2022-12-05T02:21:54;4.80;72.70
38333;DHT22;25748;46.670;14.272;2022-12-05T02:29:59;4.80;72.70
38333;DHT22;25748;46.670;14.272;2022-12-05T02:35:51;4.80;72.80
38333;DHT22;25748;46.670;14.272;2022-12-05T02:44:03;4.80;72.70
38333;DHT22;25748;46.670;14.272;2022-12-05T02:46:40;4.80;72.70
38333;DHT22;25748;46.670;14.272;2022-12-05T02:49:13;4.80;72.70
38333;DHT22;25748;46.670;14.272;2022-12-05T02:51:47;4.80;72.70
38333;DHT22;25748;46.670;14.272;2022-12-05T02:54:18;4.70;72.60
38333;DHT22;25748;46.670;14.272;2022-12-05T02:56:45;4.70;72.50
38333;DHT22;25748;46.670;14.272;2022-12-05T02:59:12;4.70;72.60
38333;DHT22;25748;46.670;14.272;2022-12-05T03:01:37;4.80;72.70
38333;DHT22;25748;46.670;14.272;2022-12-05T03:04:05;4.70;72.50
38333;DHT22;25748;46.670;14.272;2022-12-05T03:06:39;4.70;72.50
38333;DHT22;25748;46.670;14.272;2022-12-05T03:11:53;4.70;72.60
38333;DHT22;25748;46.670;14.272;2022-12-05T03:14:37;4.70;72.60
38333;DHT22;25748;46.670;14.272;2022-12-05T03:17:12;4.70;72.60
38333;DHT22;25748;46.670;14.272;2022-12-05T03:22:34;4.70;72.50
38333;DHT22;25748;46.670;14.272;2022-12-05T03:25:02;4.70;72.40
38333;DHT22;25748;46.670;14.272;2022-12-05T03:27:44;4.70;72.50
38333;DHT22;25748;46.670;14.272;2022-12-05T03:30:16;4.70;72.50
38333;DHT22;25748;46.670;14.272;2022-12-05T03:35:38;4.70;72.50
38333;DHT22;25748;46.670;14.272;2022-12-05T03:38:16;4.70;72.60
38333;DHT22;25748;46.670;14.272;2022-12-05T03:40:48;4.70;72.60
38333;DHT22;25748;46.670;14.272;2022-12-05T03:46:21;4.70;73.00
38333;DHT22;25748;46.670;14.272;2022-12-05T03:48:56;4.70;72.60
38333;DHT22;25748;46.670;14.272;2022-12-05T03:51:27;4.70;72.60
38333;DHT22;25748;46.670;14.272;2022-12-05T03:54:21;4.70;72.70
38333;DHT22;25748;46.670;14.272;2022-12-05T03:56:58;4.70;72.70
38333;DHT22;25748;46.670;14.272;2022-12-05T03:59:31;4.70;72.70
38333;DHT22;25748;46.670;14.272;2022-12-05T04:02:03;4.70;72.70
38333;DHT22;25748;46.670;14.272;2022-12-05T04:04:39;4.70;72.60
38333;DHT22;25748;46.670;14.272;2022-12-05T04:07:07;4.70;72.70
38333;DHT22;25748;46.670;14.272;2022-12-05T04:09:44;4.70;72.70
38333;DHT22;25748;46.670;14.272;2022-12-05T04:12:16;4.70;72.70
38333;DHT22;25748;46.670;14.272;2022-12-05T04:14:47;4.70;72.70
38333;DHT22;25748;46.670;14.272;2022-12-05T04:20:16;4.70;72.80
38333;DHT22;25748;46.670;14.272;2022-12-05T04:23:02;4.70;72.90
38333;DHT22;25748;46.670;14.272;2022-12-05T04:25:41;4.80;73.00
38333;DHT22;25748;46.670;14.272;2022-12-05T04:28:33;4.80;73.00
38333;DHT22;25748;46.670;14.272;2022-12-05T04:31:05;4.80;73.00
38333;DHT22;25748;46.670;14.272;2022-12-05T04:33:44;4.80;73.00
38333;DHT22;25748;46.670;14.272;2022-12-05T04:41:35;4.90;73.20
38333;DHT22;25748;46.670;14.272;2022-12-05T04:44:06;4.90;73.10
38333;DHT22;25748;46.670;14.272;2022-12-05T04:46:34;4.90;73.00
38333;DHT22;25748;46.670;14.272;2022-12-05T04:49:05;5.00;72.90
38333;DHT22;25748;46.670;14.272;2022-12-05T04:51:33;5.00;72.90
38333;DHT22;25748;46.670;14.272;2022-12-05T04:54:04;5.00;72.70
38333;DHT22;25748;46.670;14.272;2022-12-05T04:56:35;5.00;72.60
38333;DHT22;25748;46.670;14.272;2022-12-05T04:59:03;5.00;72.90
38333;DHT22;25748;46.670;14.272;2022-12-05T05:01:42;5.00;72.60
38333;DHT22;25748;46.670;14.272;2022-12-05T05:04:13;5.00;72.40
38333;DHT22;25748;46.670;14.272;2022-12-05T05:06:41;5.10;72.40
38333;DHT22;25748;46.670;14.272;2022-12-05T05:09:07;5.10;72.30
38333;DHT22;25748;46.670;14.272;2022-12-05T05:11:34;5.10;72.20
38333;DHT22;25748;46.670;14.272;2022-12-05T05:14:01;5.00;72.10
38333;DHT22;25748;46.670;14.272;2022-12-05T05:16:29;5.10;72.10
38333;DHT22;25748;46.670;14.272;2022-12-05T05:18:55;5.10;71.90
38333;DHT22;25748;46.670;14.272;2022-12-05T05:21:29;5.10;72.00
38333;DHT22;25748;46.670;14.272;2022-12-05T05:23:56;5.10;72.00
38333;DHT22;25748;46.670;14.272;2022-12-05T05:26:23;5.10;71.90
38333;DHT22;25748;46.670;14.272;2022-12-05T05:28:49;5.10;71.90
38333;DHT22;25748;46.670;14.272;2022-12-05T05:31:16;5.10;71.80
38333;DHT22;25748;46.670;14.272;2022-12-05T05:33:42;5.10;71.80
38333;DHT22;25748;46.670;14.272;2022-12-05T05:36:10;5.10;71.60
38333;DHT22;25748;46.670;14.272;2022-12-05T05:38:38;5.10;71.60
38333;DHT22;25748;46.670;14.272;2022-12-05T05:41:04;5.10;71.60
38333;DHT22;25748;46.670;14.272;2022-12-05T05:43:30;5.10;71.50
38333;DHT22;25748;46.670;14.272;2022-12-05T05:45:57;5.10;71.60
38333;DHT22;25748;46.670;14.272;2022-12-05T05:48:22;5.10;71.60
38333;DHT22;25748;46.670;14.272;2022-12-05T05:50:48;5.00;71.40
38333;DHT22;25748;46.670;14.272;2022-12-05T05:53:14;5.00;71.40
38333;DHT22;25748;46.670;14.272;2022-12-05T05:55:40;5.00;71.50
38333;DHT22;25748;46.670;14.272;2022-12-05T05:58:06;5.00;71.40
38333;DHT22;25748;46.670;14.272;2022-12-05T06:00:32;5.00;71.40
38333;DHT22;25748;46.670;14.272;2022-12-05T06:02:58;5.00;71.50
38333;DHT22;25748;46.670;14.272;2022-12-05T06:05:24;5.00;71.50
38333;DHT22;25748;46.670;14.272;2022-12-05T06:07:51;5.00;71.50
38333;DHT22;25748;46.670;14.272;2022-12-05T06:10:17;5.00;71.60
38333;DHT22;25748;46.670;14.272;2022-12-05T06:12:43;5.00;71.70
38333;DHT22;25748;46.670;14.272;2022-12-05T06:15:09;5.00;71.60
38333;DHT22;25748;46.670;14.272;2022-12-05T06:17:35;5.00;71.60
38333;DHT22;25748;46.670;14.272;2022-12-05T06:20:03;5.00;71.70
38333;DHT22;25748;46.670;14.272;2022-12-05T06:22:29;5.00;71.70
38333;DHT22;25748;46.670;14.272;2022-12-05T06:24:55;5.00;72.20
38333;DHT22;25748;46.670;14.272;2022-12-05T06:27:20;5.00;71.80
38333;DHT22;25748;46.670;14.272;2022-12-05T06:29:46;5.00;71.90
38333;DHT22;25748;46.670;14.272;2022-12-05T06:32:12;5.00;71.90
38333;DHT22;25748;46.670;14.272;2022-12-05T06:34:37;5.00;72.00
38333;DHT22;25748;46.670;14.272;2022-12-05T06:37:03;5.00;72.10
38333;DHT22;25748;46.670;14.272;2022-12-05T06:39:29;5.00;72.10
38333;DHT22;25748;46.670;14.272;2022-12-05T06:41:55;5.10;72.10
38333;DHT22;25748;46.670;14.272;2022-12-05T06:44:20;5.10;72.10
38333;DHT22;25748;46.670;14.272;2022-12-05T06:46:47;5.10;72.10
38333;DHT22;25748;46.670;14.272;2022-12-05T06:49:13;5.10;72.40
38333;DHT22;25748;46.670;14.272;2022-12-05T06:51:39;5.10;71.90
38333;DHT22;25748;46.670;14.272;2022-12-05T06:54:05;5.10;72.30
38333;DHT22;25748;46.670;14.272;2022-12-05T06:56:30;5.10;71.80
38333;DHT22;25748;46.670;14.272;2022-12-05T06:58:56;5.20;71.80
38333;DHT22;25748;46.670;14.272;2022-12-05T07:01:23;5.20;71.80
38333;DHT22;25748;46.670;14.272;2022-12-05T07:04:14;5.10;71.60
38333;DHT22;25748;46.670;14.272;2022-12-05T07:06:42;5.20;71.60
38333;DHT22;25748;46.670;14.272;2022-12-05T07:09:08;5.20;71.60
38333;DHT22;25748;46.670;14.272;2022-12-05T07:11:35;5.20;71.60
38333;DHT22;25748;46.670;14.272;2022-12-05T07:14:01;5.10;71.50
38333;DHT22;25748;46.670;14.272;2022-12-05T07:16:28;5.20;71.60
38333;DHT22;25748;46.670;14.272;2022-12-05T07:18:53;5.10;71.50
38333;DHT22;25748;46.670;14.272;2022-12-05T07:21:19;5.10;71.60
38333;DHT22;25748;46.670;14.272;2022-12-05T07:23:47;5.10;71.40
38333;DHT22;25748;46.670;14.272;2022-12-05T07:26:17;5.10;71.50
38333;DHT22;25748;46.670;14.272;2022-12-05T07:28:43;5.10;71.70
38333;DHT22;25748;46.670;14.272;2022-12-05T07:31:12;5.10;71.90
38333;DHT22;25748;46.670;14.272;2022-12-05T07:33:38;5.00;72.00
38333;DHT22;25748;46.670;14.272;2022-12-05T07:36:13;5.10;72.30
38333;DHT22;25748;46.670;14.272;2022-12-05T07:38:39;5.00;72.10
38333;DHT22;25748;46.670;14.272;2022-12-05T07:41:07;5.10;72.40
38333;DHT22;25748;46.670;14.272;2022-12-05T07:43:33;5.10;72.50
38333;DHT22;25748;46.670;14.272;2022-12-05T07:46:05;5.10;72.60
38333;DHT22;25748;46.670;14.272;2022-12-05T07:48:31;5.10;72.70
38333;DHT22;25748;46.670;14.272;2022-12-05T07:51:02;5.10;72.70
38333;DHT22;25748;46.670;14.272;2022-12-05T07:53:29;5.10;72.60
38333;DHT22;25748;46.670;14.272;2022-12-05T07:55:58;5.10;72.70
38333;DHT22;25748;46.670;14.272;2022-12-05T07:58:24;5.10;72.60
38333;DHT22;25748;46.670;14.272;2022-12-05T08:00:49;5.10;72.70
38333;DHT22;25748;46.670;14.272;2022-12-05T08:03:15;5.20;72.80
38333;DHT22;25748;46.670;14.272;2022-12-05T08:05:41;5.20;72.60
38333;DHT22;25748;46.670;14.272;2022-12-05T08:08:06;5.10;73.00
38333;DHT22;25748;46.670;14.272;2022-12-05T08:10:33;5.10;71.90
38333;DHT22;25748;46.670;14.272;2022-12-05T08:12:59;5.10;72.50
38333;DHT22;25748;46.670;14.272;2022-12-05T08:15:25;5.20;72.60
38333;DHT22;25748;46.670;14.272;2022-12-05T08:17:50;5.20;72.50
38333;DHT22;25748;46.670;14.272;2022-12-05T08:20:16;5.20;72.20
38333;DHT22;25748;46.670;14.272;2022-12-05T08:22:42;5.10;72.40
38333;DHT22;25748;46.670;14.272;2022-12-05T08:25:08;5.20;72.40
38333;DHT22;25748;46.670;14.272;2022-12-05T08:27:34;5.20;72.40
38333;DHT22;25748;46.670;14.272;2022-12-05T08:30:00;5.20;72.40
38333;DHT22;25748;46.670;14.272;2022-12-05T08:32:25;5.20;72.40
38333;DHT22;25748;46.670;14.272;2022-12-05T08:34:52;5.30;72.40
38333;DHT22;25748;46.670;14.272;2022-12-05T08:37:18;5.30;72.30
38333;DHT22;25748;46.670;14.272;2022-12-05T08:39:43;5.30;72.40
38333;DHT22;25748;46.670;14.272;2022-12-05T08:42:09;5.30;72.30
38333;DHT22;25748;46.670;14.272;2022-12-05T08:44:34;5.30;72.00
38333;DHT22;25748;46.670;14.272;2022-12-05T08:47:00;5.30;72.00
38333;DHT22;25748;46.670;14.272;2022-12-05T08:49:26;5.30;71.80
38333;DHT22;25748;46.670;14.272;2022-12-05T08:51:52;5.30;71.70
38333;DHT22;25748;46.670;14.272;2022-12-05T08:54:18;5.30;71.60
38333;DHT22;25748;46.670;14.272;2022-12-05T08:56:44;5.30;71.50
38333;DHT22;25748;46.670;14.272;2022-12-05T08:59:10;5.30;71.50
38333;DHT22;25748;46.670;14.272;2022-12-05T09:01:36;5.30;71.40
38333;DHT22;25748;46.670;14.272;2022-12-05T09:04:04;5.30;71.60
38333;DHT22;25748;46.670;14.272;2022-12-05T09:06:30;5.30;71.60
38333;DHT22;25748;46.670;14.272;2022-12-05T09:08:59;5.30;71.60
38333;DHT22;25748;46.670;14.272;2022-12-05T09:11:28;5.40;71.60
38333;DHT22;25748;46.670;14.272;2022-12-05T09:13:56;5.40;71.50
38333;DHT22;25748;46.670;14.272;2022-12-05T09:16:27;5.30;71.60
38333;DHT22;25748;46.670;14.272;2022-12-05T09:18:56;5.40;71.80
38333;DHT22;25748;46.670;14.272;2022-12-05T09:21:25;5.40;71.80
38333;DHT22;25748;46.670;14.272;2022-12-05T09:23:51;5.40;71.80
38333;DHT22;25748;46.670;14.272;2022-12-05T09:26:22;5.50;71.90
38333;DHT22;25748;46.670;14.272;2022-12-05T09:28:49;5.50;71.80
38333;DHT22;25748;46.670;14.272;2022-12-05T09:31:18;5.40;71.40
38333;DHT22;25748;46.670;14.272;2022-12-05T09:33:44;5.50;71.70
38333;DHT22;25748;46.670;14.272;2022-12-05T09:36:19;5.50;71.60
38333;DHT22;25748;46.670;14.272;2022-12-05T09:38:46;5.50;71.60
38333;DHT22;25748;46.670;14.272;2022-12-05T09:41:23;5.50;71.70
38333;DHT22;25748;46.670;14.272;2022-12-05T09:53:21;5.60;71.30
38333;DHT22;25748;46.670;14.272;2022-12-05T09:58:47;5.50;71.20
38333;DHT22;25748;46.670;14.272;2022-12-05T10:03:46;5.50;71.10
38333;DHT22;25748;46.670;14.272;2022-12-05T10:06:25;5.50;71.10
38333;DHT22;25748;46.670;14.272;2022-12-05T10:11:54;5.50;71.00
38333;DHT22;25748;46.670;14.272;2022-12-05T10:14:31;5.50;71.00
38333;DHT22;25748;46.670;14.272;2022-12-05T10:17:06;5.50;70.90
38333;DHT22;25748;46.670;14.272;2022-12-05T10:19:38;5.50;71.00
38333;DHT22;25748;46.670;14.272;2022-12-05T10:22:14;5.50;71.00
38333;DHT22;25748;46.670;14.272;2022-12-05T10:24:53;5.50;71.20
38333;DHT22;25748;46.670;14.272;2022-12-05T10:27:32;5.50;71.30
38333;DHT22;25748;46.670;14.272;2022-12-05T10:30:13;5.50;71.40
38333;DHT22;25748;46.670;14.272;2022-12-05T10:33:00;5.50;71.10
38333;DHT22;25748;46.670;14.272;2022-12-05T10:35:39;5.60;71.50
38333;DHT22;25748;46.670;14.272;2022-12-05T10:38:21;5.50;71.20
38333;DHT22;25748;46.670;14.272;2022-12-05T10:40:57;5.60;71.50
38333;DHT22;25748;46.670;14.272;2022-12-05T10:43:29;5.60;71.20
38333;DHT22;25748;46.670;14.272;2022-12-05T10:45:55;5.60;71.20
38333;DHT22;25748;46.670;14.272;2022-12-05T10:48:22;5.60;71.20
38333;DHT22;25748;46.670;14.272;2022-12-05T10:50:57;5.60;70.90
38333;DHT22;25748;46.670;14.272;2022-12-05T10:53:27;5.60;71.00
38333;DHT22;25748;46.670;14.272;2022-12-05T10:55:53;5.60;70.80
38333;DHT22;25748;46.670;14.272;2022-12-05T10:58:26;5.60;70.70
38333;DHT22;25748;46.670;14.272;2022-12-05T11:01:08;5.60;70.70
38333;DHT22;25748;46.670;14.272;2022-12-05T11:03:37;5.60;70.50
38333;DHT22;25748;46.670;14.272;2022-12-05T11:06:32;5.60;70.50
38333;DHT22;25748;46.670;14.272;2022-12-05T11:09:17;5.70;70.30
38333;DHT22;25748;46.670;14.272;2022-12-05T11:11:57;5.60;70.10
38333;DHT22;25748;46.670;14.272;2022-12-05T11:14:26;5.60;70.20
38333;DHT22;25748;46.670;14.272;2022-12-05T11:16:57;5.70;70.50
38333;DHT22;25748;46.670;14.272;2022-12-05T11:19:32;5.70;70.70
38333;DHT22;25748;46.670;14.272;2022-12-05T11:21:59;5.80;70.80
38333;DHT22;25748;46.670;14.272;2022-12-05T11:24:26;5.80;70.60
38333;DHT22;25748;46.670;14.272;2022-12-05T11:26:54;5.90;70.60
38333;DHT22;25748;46.670;14.272;2022-12-05T11:29:36;5.90;70.30
38333;DHT22;25748;46.670;14.272;2022-12-05T11:32:16;6.00;69.80
38333;DHT22;25748;46.670;14.272;2022-12-05T11:37:28;6.10;69.20
38333;DHT22;25748;46.670;14.272;2022-12-05T11:39:56;6.20;69.50
38333;DHT22;25748;46.670;14.272;2022-12-05T11:42:43;6.20;69.20
38333;DHT22;25748;46.670;14.272;2022-12-05T11:51:09;6.30;68.30
38333;DHT22;25748;46.670;14.272;2022-12-05T11:59:25;6.30;68.30
38333;DHT22;25748;46.670;14.272;2022-12-05T12:13:06;6.30;68.00
38333;DHT22;25748;46.670;14.272;2022-12-05T12:21:41;6.30;68.10
38333;DHT22;25748;46.670;14.272;2022-12-05T12:24:23;6.30;67.80
38333;DHT22;25748;46.670;14.272;2022-12-05T12:35:49;6.40;67.90
38333;DHT22;25748;46.670;14.272;2022-12-05T12:44:02;6.40;67.90
38333;DHT22;25748;46.670;14.272;2022-12-05T12:49:14;6.50;68.10
38333;DHT22;25748;46.670;14.272;2022-12-05T12:51:52;6.40;68.00
38333;DHT22;25748;46.670;14.272;2022-12-05T12:57:35;6.40;67.80
38333;DHT22;25748;46.670;14.272;2022-12-05T13:03:19;6.40;67.70
38333;DHT22;25748;46.670;14.272;2022-12-05T13:05:50;6.40;68.00
38333;DHT22;25748;46.670;14.272;2022-12-05T13:11:06;6.40;68.10
38333;DHT22;25748;46.670;14.272;2022-12-05T13:13:39;6.40;68.10
38333;DHT22;25748;46.670;14.272;2022-12-05T13:16:11;6.30;68.00
38333;DHT22;25748;46.670;14.272;2022-12-05T13:18:38;6.40;68.10
38333;DHT22;25748;46.670;14.272;2022-12-05T13:21:08;6.40;68.00
38333;DHT22;25748;46.670;14.272;2022-12-05T13:23:49;6.40;68.00
38333;DHT22;25748;46.670;14.272;2022-12-05T13:26:16;6.40;68.00
38333;DHT22;25748;46.670;14.272;2022-12-05T13:29:00;6.30;67.80
38333;DHT22;25748;46.670;14.272;2022-12-05T13:31:41;6.30;67.70
38333;DHT22;25748;46.670;14.272;2022-12-05T13:37:08;6.30;68.00
38333;DHT22;25748;46.670;14.272;2022-12-05T13:39:55;6.30;68.10
38333;DHT22;25748;46.670;14.272;2022-12-05T13:42:40;6.30;68.40
38333;DHT22;25748;46.670;14.272;2022-12-05T13:45:09;6.30;68.40
38333;DHT22;25748;46.670;14.272;2022-12-05T13:50:40;6.30;68.50
38333;DHT22;25748;46.670;14.272;2022-12-05T13:56:02;6.30;68.40
38333;DHT22;25748;46.670;14.272;2022-12-05T13:58:52;6.20;68.20
38333;DHT22;25748;46.670;14.272;2022-12-05T14:14:59;6.20;68.90
38333;DHT22;25748;46.670;14.272;2022-12-05T14:17:42;6.20;69.00
38333;DHT22;25748;46.670;14.272;2022-12-05T14:20:33;6.20;68.90
38333;DHT22;25748;46.670;14.272;2022-12-05T14:31:42;6.20;69.00
38333;DHT22;25748;46.670;14.272;2022-12-05T14:34:23;6.10;69.00
38333;DHT22;25748;46.670;14.272;2022-12-05T14:37:27;6.10;68.90
38333;DHT22;25748;46.670;14.272;2022-12-05T14:39:55;6.10;69.10
38333;DHT22;25748;46.670;14.272;2022-12-05T14:42:35;6.10;69.20
38333;DHT22;25748;46.670;14.272;2022-12-05T14:47:49;6.10;69.00
38333;DHT22;25748;46.670;14.272;2022-12-05T14:50:38;6.00;69.00
38333;DHT22;25748;46.670;14.272;2022-12-05T14:55:47;5.90;68.90
38333;DHT22;25748;46.670;14.272;2022-12-05T14:59:00;5.90;68.90
38333;DHT22;25748;46.670;14.272;2022-12-05T15:01:39;5.90;69.10
38333;DHT22;25748;46.670;14.272;2022-12-05T15:04:42;5.90;69.20
38333;DHT22;25748;46.670;14.272;2022-12-05T15:07:21;5.80;69.20
38333;DHT22;25748;46.670;14.272;2022-12-05T15:10:03;5.80;69.20
38333;DHT22;25748;46.670;14.272;2022-12-05T15:12:49;5.80;69.30
38333;DHT22;25748;46.670;14.272;2022-12-05T15:18:33;5.80;69.50
38333;DHT22;25748;46.670;14.272;2022-12-05T15:21:08;5.70;69.50
38333;DHT22;25748;46.670;14.272;2022-12-05T15:23:47;5.70;69.60
38333;DHT22;25748;46.670;14.272;2022-12-05T15:26:25;5.70;69.70
38333;DHT22;25748;46.670;14.272;2022-12-05T15:31:27;5.80;70.10
38333;DHT22;25748;46.670;14.272;2022-12-05T15:33:55;5.70;70.00
38333;DHT22;25748;46.670;14.272;2022-12-05T15:36:27;5.70;70.20
38333;DHT22;25748;46.670;14.272;2022-12-05T15:38:53;5.70;70.30
38333;DHT22;25748;46.670;14.272;2022-12-05T15:41:19;5.70;70.10
38333;DHT22;25748;46.670;14.272;2022-12-05T15:43:54;5.70;70.20
38333;DHT22;25748;46.670;14.272;2022-12-05T15:46:25;5.70;70.20
38333;DHT22;25748;46.670;14.272;2022-12-05T15:48:56;5.70;70.30
38333;DHT22;25748;46.670;14.272;2022-12-05T15:51:41;5.70;70.30
38333;DHT22;25748;46.670;14.272;2022-12-05T15:54:19;5.70;70.30
38333;DHT22;25748;46.670;14.272;2022-12-05T15:56:58;5.70;70.30
38333;DHT22;25748;46.670;14.272;2022-12-05T16:02:21;5.70;70.50
38333;DHT22;25748;46.670;14.272;2022-12-05T16:04:52;5.70;70.70
38333;DHT22;25748;46.670;14.272;2022-12-05T16:07:20;5.70;70.50
38333;DHT22;25748;46.670;14.272;2022-12-05T16:09:46;5.70;70.50
38333;DHT22;25748;46.670;14.272;2022-12-05T16:12:39;5.70;70.50
38333;DHT22;25748;46.670;14.272;2022-12-05T16:15:29;5.70;70.60
38333;DHT22;25748;46.670;14.272;2022-12-05T16:17:57;5.70;70.70
38333;DHT22;25748;46.670;14.272;2022-12-05T16:22:55;5.70;70.50
38333;DHT22;25748;46.670;14.272;2022-12-05T16:25:24;5.70;70.40
38333;DHT22;25748;46.670;14.272;2022-12-05T16:28:14;5.70;70.50
38333;DHT22;25748;46.670;14.272;2022-12-05T16:30:55;5.70;70.40
38333;DHT22;25748;46.670;14.272;2022-12-05T16:33:21;5.70;70.30
38333;DHT22;25748;46.670;14.272;2022-12-05T16:35:50;5.70;70.30
38333;DHT22;25748;46.670;14.272;2022-12-05T16:41:05;5.80;70.50
38333;DHT22;25748;46.670;14.272;2022-12-05T16:48:36;5.80;70.70
38333;DHT22;25748;46.670;14.272;2022-12-05T16:51:16;5.80;70.60
38333;DHT22;25748;46.670;14.272;2022-12-05T16:53:48;5.80;70.60
38333;DHT22;25748;46.670;14.272;2022-12-05T16:56:16;5.80;70.40
38333;DHT22;25748;46.670;14.272;2022-12-05T16:58:43;5.80;70.40
38333;DHT22;25748;46.670;14.272;2022-12-05T17:01:20;5.80;70.10
38333;DHT22;25748;46.670;14.272;2022-12-05T17:03:47;5.70;70.30
38333;DHT22;25748;46.670;14.272;2022-12-05T17:06:13;5.80;70.60
38333;DHT22;25748;46.670;14.272;2022-12-05T17:08:40;5.80;70.70
38333;DHT22;25748;46.670;14.272;2022-12-05T17:11:14;5.80;70.70
38333;DHT22;25748;46.670;14.272;2022-12-05T17:13:41;5.80;70.70
38333;DHT22;25748;46.670;14.272;2022-12-05T17:16:09;5.80;70.60
38333;DHT22;25748;46.670;14.272;2022-12-05T17:18:35;5.80;70.70
38333;DHT22;25748;46.670;14.272;2022-12-05T17:21:01;5.80;70.70
38333;DHT22;25748;46.670;14.272;2022-12-05T17:23:27;5.80;70.80
38333;DHT22;25748;46.670;14.272;2022-12-05T17:25:55;5.80;71.00
38333;DHT22;25748;46.670;14.272;2022-12-05T17:28:21;5.90;71.20
38333;DHT22;25748;46.670;14.272;2022-12-05T17:30:47;5.80;71.20
38333;DHT22;25748;46.670;14.272;2022-12-05T17:33:15;5.90;71.30
38333;DHT22;25748;46.670;14.272;2022-12-05T17:35:41;5.90;71.20
38333;DHT22;25748;46.670;14.272;2022-12-05T17:38:07;5.90;71.10
38333;DHT22;25748;46.670;14.272;2022-12-05T17:40:35;5.90;71.10
38333;DHT22;25748;46.670;14.272;2022-12-05T17:43:03;5.90;70.90
38333;DHT22;25748;46.670;14.272;2022-12-05T17:45:30;5.90;71.00
38333;DHT22;25748;46.670;14.272;2022-12-05T17:47:56;5.90;71.00
38333;DHT22;25748;46.670;14.272;2022-12-05T17:50:23;5.90;71.00
38333;DHT22;25748;46.670;14.272;2022-12-05T17:52:50;5.80;71.00
38333;DHT22;25748;46.670;14.272;2022-12-05T17:55:20;5.90;71.00
38333;DHT22;25748;46.670;14.272;2022-12-05T17:57:47;5.90;70.90
38333;DHT22;25748;46.670;14.272;2022-12-05T18:00:14;5.90;71.00
38333;DHT22;25748;46.670;14.272;2022-12-05T18:02:41;5.80;71.00
38333;DHT22;25748;46.670;14.272;2022-12-05T18:05:08;5.80;71.10
38333;DHT22;25748;46.670;14.272;2022-12-05T18:07:34;5.80;71.40
38333;DHT22;25748;46.670;14.272;2022-12-05T18:10:00;5.80;71.60
38333;DHT22;25748;46.670;14.272;2022-12-05T18:12:26;5.80;71.40
38333;DHT22;25748;46.670;14.272;2022-12-05T18:14:51;5.70;71.50
38333;DHT22;25748;46.670;14.272;2022-12-05T18:17:17;5.70;71.40
38333;DHT22;25748;46.670;14.272;2022-12-05T18:19:43;5.70;71.70
38333;DHT22;25748;46.670;14.272;2022-12-05T18:22:08;5.70;71.70
38333;DHT22;25748;46.670;14.272;2022-12-05T18:24:34;5.70;71.70
38333;DHT22;25748;46.670;14.272;2022-12-05T18:27:00;5.70;71.70
38333;DHT22;25748;46.670;14.272;2022-12-05T18:29:25;5.70;71.40
38333;DHT22;25748;46.670;14.272;2022-12-05T18:31:51;5.70;71.70
38333;DHT22;25748;46.670;14.272;2022-12-05T18:34:17;5.60;71.40
38333;DHT22;25748;46.670;14.272;2022-12-05T18:36:42;5.50;71.70
38333;DHT22;25748;46.670;14.272;2022-12-05T18:39:11;5.50;71.80
38333;DHT22;25748;46.670;14.272;2022-12-05T18:41:39;5.60;72.00
38333;DHT22;25748;46.670;14.272;2022-12-05T18:44:06;5.50;71.80
38333;DHT22;25748;46.670;14.272;2022-12-05T18:46:34;5.50;72.00